Time;durP1;ratioP1;P1;durP2;ratioP2;P2;SDS_P1;SDS_P2;PMS_P1;PMS_P2;Temp;Humidity;BMP_temperature;BMP_pressure;BME280_temperature;BME280_humidity;BME280_pressure;Samples;Min_cycle;Max_cycle;Signal;HPM_P1;HPM_P2
2021/10/24 00:06:56;;;;;;;11.00;7.00;;;;;;;1.77;77.95;100760.90;461924;1190;141169;-63
2021/10/24 00:17:02;;;;;;;15.20;9.10;;;;;;;1.92;78.05;100764.73;470001;1190;141249;-64
2021/10/24 00:27:09;;;;;;;28.30;16.20;;;;;;;1.87;78.20;100767.89;476912;1190;141594;-63
2021/10/24 00:37:15;;;;;;;18.40;9.80;;;;;;;1.69;78.22;100762.16;475244;1190;141853;-63
2021/10/24 00:47:21;;;;;;;12.30;7.30;;;;;;;1.54;78.42;100768.69;475242;1190;142561;-62
2021/10/24 00:57:28;;;;;;;17.90;10.30;;;;;;;1.42;78.52;100782.58;476154;1190;142852;-64
2021/10/24 01:07:34;;;;;;;13.80;8.30;;;;;;;1.27;78.61;100788.70;474618;1182;144061;-64
2021/10/24 01:17:40;;;;;;;15.40;8.20;;;;;;;1.21;78.93;100785.47;476830;1190;141451;-64
2021/10/24 01:27:48;;;;;;;12.50;7.80;;;;;;;1.07;78.81;100784.85;477662;1190;142313;-64
2021/10/24 01:37:55;;;;;;;15.90;8.60;;;;;;;0.88;78.39;100790.46;477517;1190;142379;-64
2021/10/24 01:48:01;;;;;;;14.40;9.00;;;;;;;0.70;78.21;100800.55;468338;1190;141979;-64
2021/10/24 01:58:07;;;;;;;13.60;7.70;;;;;;;0.56;78.30;100796.64;477090;1192;142139;-64
2021/10/24 02:08:15;;;;;;;13.60;7.50;;;;;;;0.43;78.34;100802.02;465673;1190;141589;-63
2021/10/24 02:18:21;;;;;;;12.30;6.40;;;;;;;0.30;78.37;100793.09;473457;1190;146223;-65
2021/10/24 02:28:26;;;;;;;13.90;8.20;;;;;;;0.18;78.29;100800.52;477724;1190;141704;-63
2021/10/24 02:38:32;;;;;;;12.90;7.30;;;;;;;0.16;79.08;100811.02;475378;1190;145653;-63
2021/10/24 02:48:38;;;;;;;13.50;8.00;;;;;;;0.13;78.99;100823.77;473028;1190;141886;-62
2021/10/24 02:58:45;;;;;;;14.60;9.40;;;;;;;0.10;79.18;100844.95;462329;1190;145175;-64
2021/10/24 03:08:50;;;;;;;;;;;;;;;0.08;79.54;100849.60;476191;1190;142436;-64
2021/10/24 03:18:55;;;;;;;11.50;7.80;;;;;;;0.05;79.55;100849.77;471237;1190;128040;-63
2021/10/24 03:29:02;;;;;;;13.50;8.30;;;;;;;0.01;79.79;100859.24;462775;1190;145992;-63
2021/10/24 03:39:08;;;;;;;18.00;9.70;;;;;;;-0.07;79.64;100869.06;471593;1190;140779;-65
2021/10/24 03:49:14;;;;;;;18.00;8.90;;;;;;;-0.17;79.42;100882.14;471511;1190;143326;-64
2021/10/24 03:59:21;;;;;;;16.70;9.60;;;;;;;-0.22;79.61;100894.35;465506;1190;142467;-63
2021/10/24 04:09:27;;;;;;;18.90;10.20;;;;;;;-0.26;79.62;100893.83;477180;1190;153434;-64
2021/10/24 04:19:33;;;;;;;15.30;9.50;;;;;;;-0.25;79.96;100899.86;472695;1190;145749;-64
2021/10/24 04:29:39;;;;;;;13.00;8.50;;;;;;;-0.33;79.77;100903.11;476928;1190;142733;-63
2021/10/24 04:39:45;;;;;;;20.40;10.00;;;;;;;-0.43;79.54;100912.20;477669;1190;142117;-64
2021/10/24 04:49:51;;;;;;;17.70;10.80;;;;;;;-0.51;79.50;100920.42;477778;1190;142362;-63
2021/10/24 04:59:58;;;;;;;12.80;9.40;;;;;;;-0.57;79.27;100923.70;474571;1189;142315;-65
2021/10/24 05:10:04;;;;;;;23.50;15.20;;;;;;;-0.62;79.41;100932.45;473800;1190;141984;-64
2021/10/24 05:20:11;;;;;;;28.60;14.80;;;;;;;-0.62;79.62;100938.98;475607;1190;142352;-64
2021/10/24 05:30:18;;;;;;;27.00;13.30;;;;;;;-0.61;79.88;100937.09;476918;1190;140914;-63
2021/10/24 05:40:24;;;;;;;35.80;16.90;;;;;;;-0.61;79.46;100939.85;473289;1190;142946;-63
2021/10/24 05:50:30;;;;;;;29.60;15.10;;;;;;;-0.40;79.43;100953.86;471005;1190;142353;-65
2021/10/24 06:00:36;;;;;;;30.80;16.60;;;;;;;-0.07;79.23;100962.19;460548;1190;142113;-64
2021/10/24 06:10:43;;;;;;;37.70;18.40;;;;;;;0.42;78.92;100975.16;474714;1190;142262;-63
2021/10/24 06:20:49;;;;;;;31.20;17.70;;;;;;;1.67;78.59;100982.91;476864;1190;197011;-63
2021/10/24 06:30:56;;;;;;;30.50;20.70;;;;;;;4.51;76.63;100992.56;466741;1190;142151;-63
2021/10/24 06:41:02;;;;;;;29.90;20.90;;;;;;;5.97;73.20;101001.71;470222;1190;142151;-64
2021/10/24 06:51:08;;;;;;;28.70;20.60;;;;;;;6.76;72.18;101016.71;461861;1190;141199;-62
2021/10/24 07:01:14;;;;;;;26.80;20.30;;;;;;;9.04;70.44;101019.33;463534;1190;141882;-63
2021/10/24 07:11:20;;;;;;;23.60;18.30;;;;;;;11.93;66.67;101015.50;477830;1190;144945;-63
2021/10/24 07:21:25;;;;;;;21.60;16.40;;;;;;;13.61;62.92;101014.43;477771;1190;140312;-64
2021/10/24 07:31:31;;;;;;;16.60;13.30;;;;;;;14.39;60.91;101026.35;477740;1189;141512;-65
2021/10/24 07:41:38;;;;;;;13.10;10.10;;;;;;;15.07;58.80;101025.05;476968;1190;141094;-64
2021/10/24 07:51:44;;;;;;;12.50;9.60;;;;;;;17.53;56.61;101025.73;476416;1190;141626;-64
2021/10/24 08:01:50;;;;;;;12.50;8.80;;;;;;;19.68;53.16;101021.25;465875;1190;142120;-65
2021/10/24 08:11:57;;;;;;;11.80;9.30;;;;;;;22.64;50.37;101029.16;460732;1192;183037;-63
2021/10/24 08:22:03;;;;;;;11.60;9.00;;;;;;;25.26;46.14;101029.94;477805;1190;141547;-61
2021/10/24 08:32:10;;;;;;;9.40;7.80;;;;;;;27.82;42.76;101033.80;477747;1190;140931;-59
2021/10/24 08:42:18;;;;;;;13.40;8.20;;;;;;;28.95;39.77;101031.81;476849;1190;143562;-60
2021/10/24 08:52:27;;;;;;;8.80;6.80;;;;;;;29.16;37.18;101036.37;461761;1189;20003755;-61
2021/10/24 09:02:54;;;;;;;11.50;7.20;;;;;;;29.17;35.43;101041.85;468311;1190;141745;-61
2021/10/24 09:13:04;;;;;;;9.50;6.80;;;;;;;27.70;35.01;101039.95;470504;1190;142072;-60
2021/10/24 09:23:12;;;;;;;11.70;7.00;;;;;;;22.21;36.73;101047.48;468654;1189;140963;-60
2021/10/24 09:33:21;;;;;;;11.20;6.70;;;;;;;17.64;40.72;101056.16;470021;1190;141561;-59
2021/10/24 09:43:28;;;;;;;16.40;7.40;;;;;;;15.31;43.43;101060.27;464614;1190;143384;-59
2021/10/24 09:53:38;;;;;;;10.80;5.90;;;;;;;13.65;46.24;101067.68;459824;1190;141252;-59
2021/10/24 10:03:47;;;;;;;14.80;5.40;;;;;;;12.51;48.61;101073.92;461926;1190;140607;-61
2021/10/24 10:14:00;;;;;;;10.50;6.20;;;;;;;11.62;50.44;101076.21;477775;1190;141292;-60
2021/10/24 10:24:08;;;;;;;11.00;5.70;;;;;;;10.84;52.25;101073.77;476162;1191;140669;-61
2021/10/24 10:34:15;;;;;;;9.20;4.10;;;;;;;10.88;53.14;101075.34;473277;1190;140486;-61
2021/10/24 10:44:21;;;;;;;5.60;3.10;;;;;;;11.08;53.20;101067.01;477721;1190;140666;-61
2021/10/24 10:54:56;;;;;;;7.10;2.90;;;;;;;11.22;52.82;101060.61;471132;1190;140052;-59
2021/10/24 11:05:05;;;;;;;4.60;2.80;;;;;;;10.94;52.93;101060.23;462113;1190;140864;-64
2021/10/24 11:15:19;;;;;;;6.00;2.60;;;;;;;10.78;52.94;101055.28;468632;1190;141599;-62
2021/10/24 11:25:28;;;;;;;6.80;2.90;;;;;;;10.73;53.01;101058.63;477719;1189;141504;-62
2021/10/24 11:35:36;;;;;;;8.30;2.80;;;;;;;10.35;53.47;101056.27;463059;1190;140173;-62
2021/10/24 11:45:44;;;;;;;7.00;2.70;;;;;;;10.36;53.83;101054.13;472738;1189;140983;-61
2021/10/24 11:55:53;;;;;;;4.70;1.90;;;;;;;10.29;53.72;101055.27;476948;1190;141378;-61
2021/10/24 12:05:59;;;;;;;5.50;2.00;;;;;;;10.18;53.95;101054.14;467727;1190;144182;-62
2021/10/24 12:16:23;;;;;;;4.40;2.00;;;;;;;10.04;54.09;101050.95;466911;1190;140546;-60
2021/10/24 12:26:36;;;;;;;5.30;2.00;;;;;;;10.13;54.16;101044.16;470473;1189;141728;-61
2021/10/24 12:36:43;;;;;;;6.30;3.50;;;;;;;10.11;54.20;101034.77;464481;1190;144891;-61
2021/10/24 12:46:50;;;;;;;6.10;3.60;;;;;;;10.10;54.27;101024.52;473855;1190;141351;-61
2021/10/24 12:56:56;;;;;;;5.50;2.60;;;;;;;10.19;53.94;101013.33;467981;1190;141129;-61
2021/10/24 13:07:01;;;;;;;8.70;2.60;;;;;;;10.60;53.48;101004.33;466628;1190;142022;-61
2021/10/24 13:17:07;;;;;;;7.50;2.40;;;;;;;11.06;52.71;100998.38;462526;1190;146123;-62
2021/10/24 13:27:13;;;;;;;7.60;3.10;;;;;;;11.15;52.33;100991.52;472402;1190;141628;-62
2021/10/24 13:37:19;;;;;;;5.80;3.10;;;;;;;10.66;52.39;100985.52;475086;1190;141607;-61
2021/10/24 13:47:25;;;;;;;6.90;4.30;;;;;;;10.19;53.19;100974.27;468234;1190;140838;-63
2021/10/24 13:57:31;;;;;;;7.70;4.50;;;;;;;9.88;53.64;100967.81;464734;1190;140912;-62
2021/10/24 14:07:39;;;;;;;9.90;4.10;;;;;;;9.60;54.13;100967.48;469365;1190;140888;-61
2021/10/24 14:17:47;;;;;;;8.90;3.50;;;;;;;9.39;54.57;100956.52;466837;1190;141366;-62
2021/10/24 14:27:52;;;;;;;11.30;5.90;;;;;;;9.11;54.97;100954.93;475865;1189;141140;-60
2021/10/24 14:37:58;;;;;;;8.70;5.10;;;;;;;8.88;55.50;100956.77;470521;1190;145871;-62
2021/10/24 14:48:04;;;;;;;12.30;7.50;;;;;;;8.66;56.25;100954.91;467591;1190;140130;-61
2021/10/24 14:58:10;;;;;;;13.90;7.70;;;;;;;8.50;56.49;100947.41;464355;1190;140596;-61
2021/10/24 15:08:17;;;;;;;15.80;8.50;;;;;;;8.17;57.16;100942.19;463137;1190;141047;-61
2021/10/24 15:18:26;;;;;;;17.30;10.00;;;;;;;7.70;57.73;100937.69;477535;1190;140711;-62
2021/10/24 15:28:33;;;;;;;17.20;9.10;;;;;;;7.24;58.66;100936.09;477812;1189;141027;-62
2021/10/24 15:38:39;;;;;;;15.80;7.50;;;;;;;6.77;59.67;100930.77;472064;1190;141157;-60
2021/10/24 15:48:47;;;;;;;8.80;5.80;;;;;;;6.29;60.64;100928.30;468484;1182;140725;-61
2021/10/24 15:58:52;;;;;;;20.40;10.90;;;;;;;5.83;61.69;100925.70;468877;1190;141294;-62
2021/10/24 16:09:00;;;;;;;14.70;9.00;;;;;;;5.43;62.67;100930.22;467759;1190;143067;-62
2021/10/24 16:19:06;;;;;;;51.30;26.90;;;;;;;5.05;63.47;100925.60;466671;1190;141809;-63
2021/10/24 16:29:11;;;;;;;43.90;27.40;;;;;;;4.66;64.10;100932.57;462168;1190;141915;-60
2021/10/24 16:39:19;;;;;;;38.50;23.00;;;;;;;4.26;64.80;100937.76;465778;1190;141125;-59
2021/10/24 16:49:25;;;;;;;38.90;22.80;;;;;;;3.90;65.36;100935.69;461140;1190;141304;-60
2021/10/24 16:59:32;;;;;;;44.10;23.30;;;;;;;3.54;65.88;100937.41;465830;1190;141542;-59
2021/10/24 17:09:38;;;;;;;32.30;22.60;;;;;;;3.24;66.43;100934.51;466207;1190;145839;-58
2021/10/24 17:19:46;;;;;;;30.40;17.50;;;;;;;3.02;67.00;100944.27;464732;1190;140337;-59
2021/10/24 17:29:52;;;;;;;33.60;19.50;;;;;;;2.75;67.30;100948.86;464479;1190;145772;-58
2021/10/24 17:39:58;;;;;;;39.10;20.20;;;;;;;2.52;67.87;100944.75;477059;1190;143325;-59
2021/10/24 17:50:05;;;;;;;32.90;19.40;;;;;;;2.31;68.26;100940.09;472404;1189;142339;-60
2021/10/24 18:00:13;;;;;;;33.20;19.70;;;;;;;2.12;68.58;100939.55;473099;1190;142683;-59
2021/10/24 18:10:19;;;;;;;43.60;24.90;;;;;;;1.93;68.78;100927.06;470427;1190;143281;-68
2021/10/24 18:20:27;;;;;;;43.60;24.00;;;;;;;1.74;68.85;100917.17;466570;1190;143419;-59
2021/10/24 18:30:33;;;;;;;37.50;23.90;;;;;;;1.56;69.38;100905.02;460899;1190;141338;-59
2021/10/24 18:40:39;;;;;;;42.70;26.10;;;;;;;1.35;69.90;100904.43;466900;1190;141030;-60
2021/10/24 18:50:47;;;;;;;43.60;26.30;;;;;;;1.19;70.04;100895.19;464096;1190;141386;-60
2021/10/24 19:00:53;;;;;;;42.50;26.70;;;;;;;1.25;71.60;100888.42;469543;1190;142167;-61
2021/10/24 19:11:01;;;;;;;40.00;24.70;;;;;;;1.45;72.79;100872.81;473596;1190;140717;-62
2021/10/24 19:21:07;;;;;;;48.90;29.40;;;;;;;1.62;73.18;100870.80;466332;1190;141064;-63
2021/10/24 19:31:14;;;;;;;51.70;29.20;;;;;;;1.79;73.69;100862.73;462177;1176;141263;-62
2021/10/24 19:41:20;;;;;;;38.50;23.00;;;;;;;1.96;73.71;100850.53;463575;1190;142073;-63
2021/10/24 19:51:26;;;;;;;32.60;21.20;;;;;;;1.99;73.77;100851.04;461585;1190;141401;-62
2021/10/24 20:01:34;;;;;;;30.40;18.00;;;;;;;2.07;74.08;100845.09;461962;1190;146166;-63
2021/10/24 20:11:40;;;;;;;39.90;21.70;;;;;;;2.11;74.03;100847.98;468369;1190;141994;-62
2021/10/24 20:21:46;;;;;;;32.80;21.10;;;;;;;2.15;74.21;100845.38;466560;1190;143983;-63
2021/10/24 20:31:51;;;;;;;33.50;22.00;;;;;;;2.17;74.35;100833.95;471331;1190;142446;-65
2021/10/24 20:41:57;;;;;;;39.30;24.70;;;;;;;2.20;74.47;100826.33;463177;1190;141228;-63
2021/10/24 20:52:04;;;;;;;48.80;28.10;;;;;;;2.19;74.54;100817.52;462874;1190;141306;-63
2021/10/24 21:02:10;;;;;;;47.10;30.70;;;;;;;2.02;74.41;100813.17;470760;1189;141988;-63
2021/10/24 21:12:16;;;;;;;52.00;31.90;;;;;;;1.86;74.87;100805.02;470889;1190;142131;-61
2021/10/24 21:22:21;;;;;;;46.40;29.80;;;;;;;1.73;75.11;100804.09;474323;1189;143985;-60
2021/10/24 21:32:28;;;;;;;49.20;30.10;;;;;;;1.61;75.18;100803.49;460303;1191;141129;-65
2021/10/24 21:42:34;;;;;;;46.20;28.80;;;;;;;1.47;75.57;100807.55;471220;1190;141839;-64
2021/10/24 21:52:40;;;;;;;42.70;27.20;;;;;;;1.45;75.88;100807.40;461460;1190;142042;-64
2021/10/24 22:02:47;;;;;;;37.90;24.80;;;;;;;1.48;76.22;100802.20;460315;1190;141990;-60
2021/10/24 22:12:53;;;;;;;32.20;20.60;;;;;;;1.42;76.21;100795.86;461725;1190;143630;-60
2021/10/24 22:22:59;;;;;;;28.40;19.90;;;;;;;1.32;76.38;100790.05;462103;1190;140804;-60
2021/10/24 22:33:05;;;;;;;31.60;19.30;;;;;;;1.22;76.53;100790.46;460847;1190;141423;-60
2021/10/24 22:43:11;;;;;;;28.20;17.60;;;;;;;1.13;76.68;100789.48;462912;1190;141921;-61
2021/10/24 22:53:21;;;;;;;27.90;19.20;;;;;;;1.11;77.05;100787.09;461357;1190;143386;-60
2021/10/24 23:03:27;;;;;;;28.40;18.30;;;;;;;1.13;77.33;100781.72;467364;1190;208689;-63
2021/10/24 23:13:33;;;;;;;31.00;18.00;;;;;;;1.09;77.31;100775.20;477718;1190;142049;-62
2021/10/24 23:23:40;;;;;;;26.40;15.80;;;;;;;1.05;77.45;100776.59;476827;1190;141892;-62
2021/10/24 23:33:46;;;;;;;22.40;15.60;;;;;;;1.02;77.61;100769.55;467189;1190;142560;-62
2021/10/24 23:43:52;;;;;;;24.00;15.30;;;;;;;0.95;77.60;100766.13;469499;1190;141811;-62
2021/10/24 23:53:58;;;;;;;22.90;15.50;;;;;;;0.88;77.83;100760.65;465207;1190;143670;-64
